createdAt,value
2023-04-13T00:01:12.199Z,74.84
2023-04-13T00:03:40.030Z,75.82
2023-04-13T00:06:11.095Z,75.75
2023-04-13T00:08:38.740Z,76.14
2023-04-13T00:11:07.502Z,76.46
2023-04-13T00:13:41.473Z,75.81
2023-04-13T00:16:10.355Z,76.38
2023-04-13T00:18:37.488Z,75.51
2023-04-13T00:21:04.865Z,75.92
2023-04-13T00:23:32.491Z,76.16
2023-04-13T00:26:01.524Z,75.99
2023-04-13T00:28:29.727Z,75.42
2023-04-13T00:30:59.534Z,75.30
2023-04-13T00:33:26.821Z,76.08
2023-04-13T00:35:53.974Z,75.21
2023-04-13T00:38:24.054Z,74.99
2023-04-13T00:40:52.619Z,75.07
2023-04-13T00:43:20.609Z,74.92
2023-04-13T00:45:49.914Z,74.64
2023-04-13T00:48:17.404Z,75.93
2023-04-13T00:50:45.167Z,75.61
2023-04-13T00:53:13.787Z,77.35
2023-04-13T00:55:42.804Z,76.59
2023-04-13T00:58:10.245Z,75.95
2023-04-13T01:00:39.378Z,75.80
2023-04-13T01:03:07.143Z,76.48
2023-04-13T01:05:50.317Z,76.75
2023-04-13T01:08:28.740Z,76.98
2023-04-13T01:10:58.960Z,75.67
2023-04-13T01:13:41.201Z,75.90
2023-04-13T01:16:21.691Z,76.09
2023-04-13T01:18:52.574Z,76.93
2023-04-13T01:21:24.759Z,77.23
2023-04-13T01:24:10.580Z,76.87
2023-04-13T01:26:52.922Z,77.25
2023-04-13T01:29:20.516Z,76.42
2023-04-13T01:31:48.916Z,76.17
2023-04-13T01:34:16.616Z,76.95
2023-04-13T01:36:45.807Z,76.93
2023-04-13T01:39:22.453Z,76.71
2023-04-13T01:41:51.652Z,76.56
2023-04-13T01:44:19.344Z,77.05
2023-04-13T01:46:49.590Z,77.57
2023-04-13T01:49:21.087Z,76.93
2023-04-13T01:51:51.287Z,77.11
2023-04-13T01:54:21.094Z,77.20
2023-04-13T01:56:48.950Z,77.87
2023-04-13T01:59:16.803Z,77.92
2023-04-13T02:01:44.138Z,77.77
2023-04-13T02:04:11.962Z,77.97
2023-04-13T02:06:39.607Z,77.85
2023-04-13T02:09:07.386Z,77.94
2023-04-13T02:11:36.413Z,77.64
2023-04-13T02:14:04.883Z,77.15
2023-04-13T02:16:32.415Z,77.32
2023-04-13T02:19:00.235Z,78.04
2023-04-13T02:21:28.312Z,78.26
2023-04-13T02:23:55.841Z,78.57
2023-04-13T02:26:23.133Z,78.40
2023-04-13T02:28:51.490Z,78.37
2023-04-13T02:31:20.685Z,78.00
2023-04-13T02:33:47.956Z,77.72
2023-04-13T02:36:17.466Z,78.10
2023-04-13T02:38:45.697Z,77.95
2023-04-13T02:41:13.590Z,76.64
2023-04-13T02:43:40.719Z,76.38
2023-04-13T02:46:08.865Z,77.47
2023-04-13T02:48:37.071Z,78.13
2023-04-13T02:51:05.017Z,78.62
2023-04-13T02:53:32.701Z,78.36
2023-04-13T02:56:00.862Z,77.63
2023-04-13T02:58:31.524Z,76.55
2023-04-13T03:00:59.358Z,78.91
2023-04-13T03:03:26.694Z,79.42
2023-04-13T03:05:53.842Z,80.33
2023-04-13T03:08:21.331Z,80.65
2023-04-13T03:10:50.043Z,80.24
2023-04-13T03:13:17.194Z,79.60
2023-04-13T03:15:45.209Z,79.73
2023-04-13T03:18:13.251Z,79.99
2023-04-13T03:20:40.359Z,79.52
2023-04-13T03:23:07.849Z,80.43
2023-04-13T03:25:35.521Z,80.35
2023-04-13T03:28:03.460Z,77.93
2023-04-13T03:30:34.277Z,78.93
2023-04-13T03:33:02.445Z,78.43
2023-04-13T03:35:30.256Z,78.29
2023-04-13T03:37:58.065Z,77.93
2023-04-13T03:40:26.225Z,78.33
2023-04-13T03:42:53.532Z,78.82
2023-04-13T03:45:22.332Z,78.94
2023-04-13T03:47:49.812Z,78.75
2023-04-13T03:50:19.162Z,77.81
2023-04-13T03:52:46.648Z,78.78
2023-04-13T03:55:14.102Z,78.00
2023-04-13T03:57:42.038Z,78.08
2023-04-13T04:00:14.121Z,77.98
2023-04-13T04:02:45.288Z,77.67
2023-04-13T04:05:13.072Z,77.42
2023-04-13T04:07:40.600Z,76.63
2023-04-13T04:10:10.703Z,77.32
2023-04-13T04:12:37.921Z,76.23
2023-04-13T04:15:08.602Z,75.31
2023-04-13T04:17:39.413Z,75.25
2023-04-13T04:20:07.952Z,74.95
2023-04-13T04:22:36.666Z,74.40
2023-04-13T04:25:04.617Z,73.43
2023-04-13T04:27:37.921Z,73.51
2023-04-13T04:30:07.271Z,74.16
2023-04-13T04:32:35.891Z,74.91
2023-04-13T04:35:04.973Z,73.53
2023-04-13T04:37:37.517Z,71.09
2023-04-13T04:40:13.061Z,72.15
2023-04-13T04:42:40.571Z,72.04
2023-04-13T04:45:09.350Z,72.62
2023-04-13T04:47:43.816Z,73.35
2023-04-13T04:50:14.639Z,73.00
2023-04-13T04:52:43.160Z,73.27
2023-04-13T04:55:11.154Z,73.59
2023-04-13T04:57:39.318Z,74.43
2023-04-13T05:00:16.897Z,74.23
2023-04-13T05:02:44.843Z,74.19
2023-04-13T05:05:12.464Z,74.04
2023-04-13T05:07:39.809Z,75.46
2023-04-13T05:10:09.233Z,74.52
2023-04-13T05:12:37.617Z,73.92
2023-04-13T05:15:06.445Z,73.57
2023-04-13T05:17:36.419Z,72.81
2023-04-13T05:20:07.266Z,72.16
2023-04-13T05:22:35.912Z,68.66
2023-04-13T05:25:03.959Z,67.06
2023-04-13T05:27:31.171Z,65.89
2023-04-13T05:29:59.048Z,63.16
2023-04-13T05:32:26.433Z,61.71
2023-04-13T05:34:53.900Z,60.89
2023-04-13T05:37:21.573Z,58.69
2023-04-13T05:39:48.797Z,58.15
2023-04-13T05:42:16.512Z,55.81
2023-04-13T05:44:44.173Z,53.89
2023-04-13T05:47:11.851Z,55.62
2023-04-13T05:49:39.283Z,54.68
2023-04-13T05:52:10.624Z,54.92
2023-04-13T05:54:39.631Z,54.24
2023-04-13T05:57:07.136Z,54.15
2023-04-13T05:59:35.623Z,53.71
2023-04-13T06:02:03.614Z,54.71
2023-04-13T06:04:31.951Z,54.04
2023-04-13T06:06:59.309Z,55.10
2023-04-13T06:09:27.218Z,54.80
2023-04-13T06:11:55.324Z,51.99
2023-04-13T06:14:23.472Z,51.14
2023-04-13T06:16:52.200Z,53.12
2023-04-13T06:19:19.657Z,53.85
2023-04-13T06:21:47.163Z,51.77
2023-04-13T06:24:14.467Z,51.48
2023-04-13T06:26:42.751Z,48.52
2023-04-13T06:29:10.662Z,52.62
2023-04-13T06:31:38.624Z,54.92
2023-04-13T06:34:07.440Z,51.04
2023-04-13T06:36:34.985Z,49.54
2023-04-13T06:39:03.379Z,49.24
2023-04-13T06:41:32.215Z,56.98
2023-04-13T06:44:10.506Z,50.67
2023-04-13T06:46:39.614Z,51.31
2023-04-13T06:49:07.536Z,48.00
2023-04-13T06:51:34.848Z,48.56
2023-04-13T06:54:02.362Z,48.73
2023-04-13T06:56:30.017Z,49.23
2023-04-13T06:59:02.558Z,49.30
2023-04-13T07:01:31.903Z,47.83
2023-04-13T07:03:59.377Z,48.24
2023-04-13T07:06:27.516Z,47.83
2023-04-13T07:08:55.018Z,47.13
2023-04-13T07:11:22.425Z,48.10
2023-04-13T07:13:49.631Z,47.40
2023-04-13T07:16:17.138Z,48.03
2023-04-13T07:18:44.746Z,46.75
2023-04-13T07:21:11.918Z,48.93
2023-04-13T07:23:39.907Z,45.51
2023-04-13T07:26:13.070Z,44.85
2023-04-13T07:28:41.592Z,45.22
2023-04-13T07:31:09.260Z,46.58
2023-04-13T07:33:39.528Z,45.51
2023-04-13T07:36:08.666Z,45.33
2023-04-13T07:38:37.023Z,47.58
2023-04-13T07:41:04.724Z,43.84
2023-04-13T07:43:35.324Z,45.36
2023-04-13T07:46:11.864Z,45.24
2023-04-13T07:48:39.831Z,45.58
2023-04-13T07:51:16.034Z,47.74
2023-04-13T07:53:43.881Z,46.08
2023-04-13T07:56:11.622Z,44.55
2023-04-13T07:58:38.948Z,44.86
2023-04-13T08:01:07.099Z,45.99
2023-04-13T08:03:35.515Z,46.39
2023-04-13T08:06:07.817Z,44.23
2023-04-13T08:08:35.691Z,44.37
2023-04-13T08:11:03.339Z,44.48
2023-04-13T08:13:32.819Z,45.30
2023-04-13T08:16:00.500Z,42.75
2023-04-13T08:18:27.972Z,42.14
2023-04-13T08:20:55.564Z,46.42
2023-04-13T08:23:23.918Z,44.72
2023-04-13T08:25:51.736Z,46.71
2023-04-13T08:28:19.005Z,45.65
2023-04-13T08:30:46.608Z,46.96
2023-04-13T08:33:14.294Z,45.52
2023-04-13T08:35:41.763Z,45.12
2023-04-13T08:38:10.262Z,43.84
2023-04-13T08:40:39.744Z,44.69
2023-04-13T08:43:07.638Z,43.88
2023-04-13T08:45:35.410Z,44.35
2023-04-13T08:48:03.520Z,46.23
2023-04-13T08:50:32.614Z,45.11
2023-04-13T08:53:00.584Z,47.22
2023-04-13T08:55:29.415Z,44.83
2023-04-13T08:57:57.925Z,44.83
2023-04-13T09:00:25.519Z,44.27
2023-04-13T09:03:04.485Z,43.94
2023-04-13T09:05:39.055Z,43.71
2023-04-13T09:08:08.162Z,46.84
2023-04-13T09:10:36.742Z,45.00
2023-04-13T09:13:04.136Z,44.23
2023-04-13T09:15:32.273Z,45.16
2023-04-13T09:18:10.431Z,43.65
2023-04-13T09:20:38.362Z,42.34
2023-04-13T09:23:14.563Z,41.15
2023-04-13T09:25:42.272Z,41.90
2023-04-13T09:28:19.722Z,39.94
2023-04-13T09:30:47.515Z,42.36
2023-04-13T09:33:16.958Z,41.86
2023-04-13T09:35:44.145Z,40.47
2023-04-13T09:38:15.369Z,41.35
2023-04-13T09:40:49.505Z,39.78
2023-04-13T09:43:17.105Z,39.01
2023-04-13T09:45:44.567Z,37.84
2023-04-13T09:48:21.778Z,40.83
2023-04-13T09:51:04.957Z,41.63
2023-04-13T09:53:46.632Z,40.55
2023-04-13T09:56:14.300Z,41.75
2023-04-13T09:58:43.250Z,40.65
2023-04-13T10:01:10.488Z,41.67
2023-04-13T10:03:38.539Z,38.05
2023-04-13T10:06:07.915Z,39.40
2023-04-13T10:08:42.751Z,40.47
2023-04-13T10:11:14.742Z,42.08
2023-04-13T10:13:53.951Z,40.06
2023-04-13T10:16:33.638Z,41.80
2023-04-13T10:19:05.136Z,41.25
2023-04-13T10:21:35.680Z,40.38
2023-04-13T10:26:37.780Z,40.63
2023-04-13T10:29:06.077Z,41.64
2023-04-13T10:31:39.923Z,40.16
2023-04-13T10:34:08.502Z,41.61
2023-04-13T10:36:38.468Z,41.87
2023-04-13T10:39:06.157Z,43.65
2023-04-13T10:41:34.023Z,45.28
2023-04-13T10:44:05.331Z,40.26
2023-04-13T10:46:34.309Z,40.74
2023-04-13T10:49:03.331Z,44.50
2023-04-13T10:51:40.340Z,40.70
2023-04-13T10:54:08.383Z,41.99
2023-04-13T10:56:36.153Z,40.99
2023-04-13T10:59:04.460Z,41.86
2023-04-13T11:01:33.825Z,40.25
2023-04-13T11:04:06.838Z,42.40
2023-04-13T11:06:37.994Z,40.39
2023-04-13T11:09:07.310Z,43.96
2023-04-13T11:11:36.937Z,44.52
2023-04-13T11:14:04.669Z,38.67
2023-04-13T11:16:31.955Z,37.99
2023-04-13T11:19:03.651Z,41.73
2023-04-13T11:21:35.665Z,40.02
2023-04-13T11:24:03.898Z,39.23
2023-04-13T11:26:38.234Z,39.15
2023-04-13T11:29:06.235Z,39.81
2023-04-13T11:31:42.334Z,41.14
2023-04-13T11:34:11.368Z,40.64
2023-04-13T11:36:39.824Z,39.72
2023-04-13T11:39:10.979Z,39.78
2023-04-13T11:41:40.669Z,37.98
2023-04-13T11:44:07.847Z,39.22
2023-04-13T11:46:35.070Z,40.41
2023-04-13T11:49:02.781Z,41.37
2023-04-13T11:51:31.818Z,37.82
2023-04-13T11:53:59.686Z,40.26
2023-04-13T11:56:27.307Z,39.68
2023-04-13T11:58:54.557Z,39.11
2023-04-13T12:01:26.313Z,37.39
2023-04-13T12:04:14.930Z,37.26
2023-04-13T12:06:47.333Z,36.79
2023-04-13T12:09:17.980Z,39.36
2023-04-13T12:12:15.163Z,38.40
2023-04-13T12:14:57.730Z,39.52
2023-04-13T12:17:41.242Z,40.59
2023-04-13T12:20:16.543Z,39.77
2023-04-13T12:22:55.838Z,39.51
2023-04-13T12:28:03.405Z,39.41
2023-04-13T12:30:32.843Z,39.57
2023-04-13T12:33:00.078Z,39.02
2023-04-13T12:35:27.225Z,39.45
2023-04-13T12:37:54.634Z,39.98
2023-04-13T12:40:21.856Z,40.89
2023-04-13T12:42:49.244Z,40.17
2023-04-13T12:45:16.882Z,41.36
2023-04-13T12:47:44.119Z,41.01
2023-04-13T12:50:12.046Z,40.52
2023-04-13T12:52:42.601Z,40.29
2023-04-13T12:55:10.308Z,41.28
2023-04-13T12:57:37.836Z,41.23
2023-04-13T13:00:10.602Z,41.72
2023-04-13T13:02:38.291Z,41.65
2023-04-13T13:05:06.601Z,42.17
2023-04-13T13:07:33.736Z,41.99
2023-04-13T13:10:05.002Z,42.22
2023-04-13T13:12:37.713Z,42.72
2023-04-13T13:15:10.304Z,42.01
2023-04-13T13:17:41.225Z,42.56
2023-04-13T13:20:10.723Z,42.21
2023-04-13T13:22:38.211Z,42.19
2023-04-13T13:25:07.161Z,42.00
2023-04-13T13:28:05.566Z,42.29
2023-04-13T13:30:26.626Z,42.15
2023-04-13T13:32:53.757Z,42.64
2023-04-13T13:35:20.982Z,43.18
2023-04-13T13:37:48.374Z,42.27
2023-04-13T13:40:15.629Z,43.80
2023-04-13T13:42:52.025Z,42.53
2023-04-13T13:45:23.658Z,42.90
2023-04-13T13:47:57.275Z,42.72
2023-04-13T13:50:27.376Z,42.60
2023-04-13T13:53:03.678Z,43.24
2023-04-13T13:55:32.516Z,42.42
2023-04-13T13:57:59.837Z,43.03
2023-04-13T14:00:27.215Z,42.56
2023-04-13T14:02:55.101Z,43.23
2023-04-13T14:05:22.675Z,42.03
2023-04-13T14:07:50.960Z,42.57
2023-04-13T14:10:18.761Z,42.82
2023-04-13T14:12:49.612Z,42.40
2023-04-13T14:15:17.879Z,42.70
2023-04-13T14:17:55.536Z,42.49
2023-04-13T14:20:34.527Z,43.10
2023-04-13T14:23:02.033Z,42.32
2023-04-13T14:25:29.211Z,42.33
2023-04-13T14:27:56.530Z,42.97
2023-04-13T14:30:26.267Z,42.32
2023-04-13T14:32:54.925Z,42.83
2023-04-13T14:35:22.277Z,41.73
2023-04-13T14:37:49.822Z,41.90
2023-04-13T14:40:21.662Z,42.51
2023-04-13T14:42:50.932Z,43.08
2023-04-13T14:45:19.328Z,42.62
2023-04-13T14:47:46.709Z,43.02
2023-04-13T14:50:15.451Z,44.59
2023-04-13T14:52:44.370Z,46.55
2023-04-13T14:55:12.186Z,46.43
2023-04-13T14:57:40.287Z,47.22
2023-04-13T15:00:38.918Z,48.33
2023-04-13T15:03:07.882Z,48.52
2023-04-13T15:05:43.533Z,49.52
2023-04-13T15:08:17.704Z,50.05
2023-04-13T15:10:45.850Z,51.21
2023-04-13T15:13:13.216Z,51.19
2023-04-13T15:15:40.811Z,51.83
2023-04-13T15:18:09.104Z,52.91
2023-04-13T15:20:36.636Z,53.04
2023-04-13T15:23:03.836Z,53.61
2023-04-13T15:25:31.263Z,52.73
2023-04-13T15:27:58.789Z,52.84
2023-04-13T15:30:30.992Z,52.64
2023-04-13T15:32:59.983Z,53.22
2023-04-13T15:35:27.467Z,54.43
2023-04-13T15:37:54.957Z,55.77
2023-04-13T15:40:25.718Z,57.61
2023-04-13T15:42:53.024Z,56.90
2023-04-13T15:45:21.040Z,58.74
2023-04-13T15:47:48.530Z,58.64
2023-04-13T15:50:16.042Z,59.19
2023-04-13T15:52:43.192Z,61.32
2023-04-13T15:55:10.656Z,63.88
2023-04-13T15:57:38.315Z,64.96
2023-04-13T16:00:08.671Z,66.15
2023-04-13T16:02:36.616Z,66.64
2023-04-13T16:05:04.275Z,67.30
2023-04-13T16:07:31.796Z,67.63
2023-04-13T16:10:01.468Z,67.99
2023-04-13T16:12:32.364Z,69.39
2023-04-13T16:15:03.234Z,69.73
2023-04-13T16:17:31.724Z,71.11
2023-04-13T16:20:31.801Z,70.63
2023-04-13T16:23:02.398Z,71.24
2023-04-13T16:25:30.740Z,73.29
2023-04-13T16:27:58.172Z,73.18
2023-04-13T16:30:25.912Z,74.03
2023-04-13T16:32:53.077Z,73.29
2023-04-13T16:35:20.292Z,73.66
2023-04-13T16:37:47.782Z,73.48
2023-04-13T16:40:15.716Z,73.31
2023-04-13T16:42:43.563Z,71.88
2023-04-13T16:45:14.928Z,72.53
2023-04-13T16:47:42.777Z,71.68
2023-04-13T16:50:11.075Z,70.29
2023-04-13T16:52:41.163Z,69.17
2023-04-13T16:55:14.781Z,70.83
2023-04-13T16:57:42.973Z,70.57
2023-04-13T17:00:11.033Z,69.97
2023-04-13T17:02:39.617Z,70.16
2023-04-13T17:05:11.634Z,69.78
2023-04-13T17:07:39.764Z,68.97
2023-04-13T17:10:08.320Z,68.00
2023-04-13T17:12:36.256Z,67.94
2023-04-13T17:15:05.295Z,69.00
2023-04-13T17:17:32.913Z,67.68
2023-04-13T17:20:00.066Z,67.44
2023-04-13T17:22:27.306Z,67.73
2023-04-13T17:24:55.515Z,68.48
2023-04-13T17:27:22.862Z,67.81
2023-04-13T17:29:50.072Z,67.65
2023-04-13T17:32:19.582Z,69.52
2023-04-13T17:34:47.991Z,69.07
2023-04-13T17:37:15.781Z,69.69
2023-04-13T17:39:47.414Z,69.73
2023-04-13T17:42:15.236Z,68.84
2023-04-13T17:44:43.562Z,72.58
2023-04-13T17:47:10.909Z,70.12
2023-04-13T17:49:38.687Z,71.48
2023-04-13T17:52:06.635Z,73.14
2023-04-13T17:54:33.880Z,75.34
2023-04-13T17:57:01.740Z,70.93
2023-04-13T17:59:29.298Z,70.60
2023-04-13T18:01:58.514Z,70.74
2023-04-13T18:04:26.641Z,70.82
2023-04-13T18:06:56.447Z,72.52
2023-04-13T18:09:24.911Z,72.64
2023-04-13T18:11:52.431Z,73.42
2023-04-13T18:14:19.666Z,74.11
2023-04-13T18:16:46.926Z,74.01
2023-04-13T18:19:14.604Z,75.31
2023-04-13T18:21:41.761Z,74.33
2023-04-13T18:24:09.200Z,73.78
2023-04-13T18:26:36.787Z,75.04
2023-04-13T18:29:03.983Z,76.80
2023-04-13T18:31:32.247Z,76.71
2023-04-13T18:33:59.971Z,76.88
2023-04-13T18:36:27.795Z,77.44
2023-04-13T18:38:55.039Z,77.36
2023-04-13T18:41:22.537Z,79.40
2023-04-13T18:43:49.779Z,80.05
2023-04-13T18:46:17.036Z,80.48
2023-04-13T18:48:44.586Z,81.68
2023-04-13T18:51:12.418Z,82.67
2023-04-13T18:53:42.457Z,82.19
2023-04-13T18:56:09.952Z,83.15
2023-04-13T18:58:37.384Z,83.53
2023-04-13T19:01:04.690Z,83.03
2023-04-13T19:03:32.286Z,82.97
2023-04-13T19:05:59.628Z,82.87
2023-04-13T19:08:26.832Z,82.70
2023-04-13T19:10:54.271Z,82.61
2023-04-13T19:13:21.411Z,83.28
2023-04-13T19:15:48.601Z,84.01
2023-04-13T19:18:18.186Z,84.36
2023-04-13T19:20:45.473Z,84.61
2023-04-13T19:23:15.539Z,85.50
2023-04-13T19:25:43.006Z,84.48
2023-04-13T19:28:10.264Z,85.30
2023-04-13T19:30:37.402Z,85.46
2023-04-13T19:33:04.861Z,85.06
2023-04-13T19:35:32.841Z,83.66
2023-04-13T19:37:59.970Z,79.93
2023-04-13T19:40:27.515Z,77.95
2023-04-13T19:42:54.779Z,76.55
2023-04-13T19:45:21.911Z,76.10
2023-04-13T19:47:49.519Z,75.75
2023-04-13T19:50:16.716Z,75.71
2023-04-13T19:52:47.101Z,76.92
2023-04-13T19:55:15.433Z,75.47
2023-04-13T19:57:43.039Z,74.41
2023-04-13T20:00:17.399Z,74.11
2023-04-13T20:02:49.677Z,73.75
2023-04-13T20:05:18.463Z,73.63
2023-04-13T20:07:46.017Z,73.76
2023-04-13T20:10:13.173Z,73.91
2023-04-13T20:12:40.381Z,74.30
2023-04-13T20:15:08.138Z,74.07
2023-04-13T20:17:35.398Z,75.73
2023-04-13T20:20:02.961Z,75.86
2023-04-13T20:22:30.538Z,76.54
2023-04-13T20:24:58.153Z,75.55
2023-04-13T20:27:25.670Z,75.92
2023-04-13T20:29:53.141Z,75.55
2023-04-13T20:32:20.502Z,74.51
2023-04-13T20:34:48.704Z,74.93
2023-04-13T20:37:18.330Z,76.36
2023-04-13T20:39:52.821Z,76.89
2023-04-13T20:42:21.868Z,77.14
2023-04-13T20:44:57.315Z,78.21
2023-04-13T20:47:26.652Z,79.43
2023-04-13T20:49:57.291Z,79.01
2023-04-13T20:52:25.960Z,78.76
2023-04-13T20:54:54.673Z,79.20
2023-04-13T20:57:22.400Z,79.25
2023-04-13T20:59:51.779Z,80.82
2023-04-13T21:02:19.058Z,81.46
2023-04-13T21:04:46.695Z,81.72
2023-04-13T21:07:15.403Z,82.70
2023-04-13T21:09:43.044Z,83.50
2023-04-13T21:12:10.291Z,83.81
2023-04-13T21:14:37.804Z,84.44
2023-04-13T21:17:04.984Z,84.67
2023-04-13T21:19:32.652Z,85.86
2023-04-13T21:22:00.303Z,86.41
2023-04-13T21:24:27.552Z,88.38
2023-04-13T21:26:54.766Z,90.88
2023-04-13T21:29:22.341Z,92.17
2023-04-13T21:31:49.601Z,92.65
2023-04-13T21:34:17.136Z,92.72
2023-04-13T21:39:17.952Z,92.20
2023-04-13T21:41:48.200Z,92.37
2023-04-13T21:44:28.809Z,92.01
2023-04-13T21:46:58.505Z,90.21
2023-04-13T21:49:25.882Z,88.48
2023-04-13T21:51:53.100Z,87.70
2023-04-13T21:54:20.669Z,86.58
2023-04-13T21:56:49.095Z,85.37
2023-04-13T21:59:16.290Z,84.49
2023-04-13T22:01:43.901Z,83.75
2023-04-13T22:04:12.831Z,82.19
2023-04-13T22:06:40.123Z,82.05
2023-04-13T22:09:07.258Z,81.51
2023-04-13T22:11:34.653Z,81.78
2023-04-13T22:14:01.765Z,81.78
2023-04-13T22:16:29.011Z,82.48
2023-04-13T22:18:56.450Z,82.36
2023-04-13T22:21:23.865Z,80.90
2023-04-13T22:23:51.173Z,81.13
2023-04-13T22:26:18.613Z,81.59
2023-04-13T22:28:45.902Z,80.55
2023-04-13T22:31:13.141Z,78.14
2023-04-13T22:33:40.885Z,76.73
2023-04-13T22:36:20.145Z,76.72
2023-04-13T22:38:47.965Z,75.84
2023-04-13T22:41:15.664Z,74.16
2023-04-13T22:43:42.772Z,72.39
2023-04-13T22:46:10.247Z,71.25
2023-04-13T22:48:37.461Z,71.89
2023-04-13T22:51:04.691Z,71.28
2023-04-13T22:53:32.226Z,70.24
2023-04-13T22:56:00.747Z,71.43
2023-04-13T22:58:28.237Z,71.32
2023-04-13T23:00:55.810Z,71.10
2023-04-13T23:03:23.015Z,70.93
2023-04-13T23:05:50.746Z,70.07
2023-04-13T23:08:18.173Z,69.49
2023-04-13T23:10:45.280Z,68.63
2023-04-13T23:13:12.434Z,68.94
2023-04-13T23:15:39.883Z,67.99
2023-04-13T23:18:07.086Z,68.00
2023-04-13T23:20:34.268Z,67.88
2023-04-13T23:23:01.810Z,67.94
2023-04-13T23:25:29.025Z,69.69
2023-04-13T23:27:56.152Z,71.22
2023-04-13T23:30:23.638Z,70.44
2023-04-13T23:32:51.023Z,71.21
2023-04-13T23:35:18.126Z,70.68
2023-04-13T23:37:46.204Z,69.21
2023-04-13T23:40:13.423Z,67.43
2023-04-13T23:42:40.879Z,66.35
2023-04-13T23:45:08.876Z,65.59
2023-04-13T23:47:36.125Z,64.23
2023-04-13T23:50:03.454Z,64.22
2023-04-13T23:52:30.930Z,65.48
2023-04-13T23:54:58.146Z,63.37
2023-04-13T23:57:25.403Z,62.77
2023-04-13T23:59:57.249Z,63.21
